sensor_id;sensor_type;location;lat;lon;timestamp;P1;durP1;ratioP1;P2;durP2;ratioP2
75885;SDS011;64561;44.018;10.144;2023-05-14T00:02:07;2.72;;;1.50;;
75885;SDS011;64561;44.018;10.144;2023-05-14T00:04:34;3.03;;;1.83;;
75885;SDS011;64561;44.018;10.144;2023-05-14T00:07:01;1.88;;;1.40;;
75885;SDS011;64561;44.018;10.144;2023-05-14T00:09:27;2.55;;;1.70;;
75885;SDS011;64561;44.018;10.144;2023-05-14T00:11:55;5.30;;;1.70;;
75885;SDS011;64561;44.018;10.144;2023-05-14T00:14:22;2.53;;;1.58;;
75885;SDS011;64561;44.018;10.144;2023-05-14T00:16:49;3.55;;;1.30;;
75885;SDS011;64561;44.018;10.144;2023-05-14T00:19:19;2.30;;;1.00;;
75885;SDS011;64561;44.018;10.144;2023-05-14T00:21:47;3.15;;;0.90;;
75885;SDS011;64561;44.018;10.144;2023-05-14T00:24:13;2.33;;;1.00;;
75885;SDS011;64561;44.018;10.144;2023-05-14T00:26:40;2.22;;;1.00;;
75885;SDS011;64561;44.018;10.144;2023-05-14T00:29:07;1.70;;;1.10;;
75885;SDS011;64561;44.018;10.144;2023-05-14T00:31:34;1.88;;;1.02;;
75885;SDS011;64561;44.018;10.144;2023-05-14T00:34:01;1.58;;;0.90;;
75885;SDS011;64561;44.018;10.144;2023-05-14T00:36:28;1.25;;;0.90;;
75885;SDS011;64561;44.018;10.144;2023-05-14T00:38:55;2.08;;;1.77;;
75885;SDS011;64561;44.018;10.144;2023-05-14T00:41:22;1.60;;;0.90;;
75885;SDS011;64561;44.018;10.144;2023-05-14T00:43:49;1.95;;;1.02;;
75885;SDS011;64561;44.018;10.144;2023-05-14T00:46:16;1.40;;;0.85;;
75885;SDS011;64561;44.018;10.144;2023-05-14T00:48:43;1.95;;;1.30;;
75885;SDS011;64561;44.018;10.144;2023-05-14T00:51:10;2.88;;;1.30;;
75885;SDS011;64561;44.018;10.144;2023-05-14T00:53:37;2.92;;;1.20;;
75885;SDS011;64561;44.018;10.144;2023-05-14T00:56:04;2.58;;;1.13;;
75885;SDS011;64561;44.018;10.144;2023-05-14T00:58:33;3.75;;;1.60;;
75885;SDS011;64561;44.018;10.144;2023-05-14T01:01:00;1.45;;;1.02;;
75885;SDS011;64561;44.018;10.144;2023-05-14T01:03:28;1.60;;;1.00;;
75885;SDS011;64561;44.018;10.144;2023-05-14T01:17:10;1.75;;;1.00;;
75885;SDS011;64561;44.018;10.144;2023-05-14T01:19:41;2.17;;;1.25;;
75885;SDS011;64561;44.018;10.144;2023-05-14T01:22:10;2.38;;;1.40;;
75885;SDS011;64561;44.018;10.144;2023-05-14T01:24:37;2.08;;;1.20;;
75885;SDS011;64561;44.018;10.144;2023-05-14T01:27:21;2.65;;;1.30;;
75885;SDS011;64561;44.018;10.144;2023-05-14T01:30:21;2.90;;;1.17;;
75885;SDS011;64561;44.018;10.144;2023-05-14T01:32:55;1.20;;;0.90;;
75885;SDS011;64561;44.018;10.144;2023-05-14T01:35:26;1.77;;;1.30;;
75885;SDS011;64561;44.018;10.144;2023-05-14T01:38:02;1.33;;;1.00;;
75885;SDS011;64561;44.018;10.144;2023-05-14T01:40:32;1.67;;;1.00;;
75885;SDS011;64561;44.018;10.144;2023-05-14T01:43:00;2.60;;;0.80;;
75885;SDS011;64561;44.018;10.144;2023-05-14T01:45:28;2.92;;;1.15;;
75885;SDS011;64561;44.018;10.144;2023-05-14T01:47:56;1.35;;;1.00;;
75885;SDS011;64561;44.018;10.144;2023-05-14T01:50:23;1.92;;;1.20;;
75885;SDS011;64561;44.018;10.144;2023-05-14T01:52:50;2.30;;;0.98;;
75885;SDS011;64561;44.018;10.144;2023-05-14T01:55:22;2.72;;;1.00;;
75885;SDS011;64561;44.018;10.144;2023-05-14T01:57:53;3.20;;;1.23;;
75885;SDS011;64561;44.018;10.144;2023-05-14T02:00:21;1.52;;;0.93;;
75885;SDS011;64561;44.018;10.144;2023-05-14T02:02:51;3.15;;;1.58;;
75885;SDS011;64561;44.018;10.144;2023-05-14T02:05:18;1.52;;;1.05;;
75885;SDS011;64561;44.018;10.144;2023-05-14T02:07:45;1.48;;;1.10;;
75885;SDS011;64561;44.018;10.144;2023-05-14T02:10:12;2.17;;;1.20;;
75885;SDS011;64561;44.018;10.144;2023-05-14T02:12:39;1.65;;;1.00;;
75885;SDS011;64561;44.018;10.144;2023-05-14T02:15:06;4.18;;;1.27;;
75885;SDS011;64561;44.018;10.144;2023-05-14T02:17:34;2.13;;;1.15;;
75885;SDS011;64561;44.018;10.144;2023-05-14T02:20:01;1.75;;;1.00;;
75885;SDS011;64561;44.018;10.144;2023-05-14T02:22:29;2.50;;;1.30;;
75885;SDS011;64561;44.018;10.144;2023-05-14T02:24:56;2.28;;;1.10;;
75885;SDS011;64561;44.018;10.144;2023-05-14T02:27:22;1.98;;;1.23;;
75885;SDS011;64561;44.018;10.144;2023-05-14T02:29:49;2.78;;;1.20;;
75885;SDS011;64561;44.018;10.144;2023-05-14T02:32:16;2.05;;;1.20;;
75885;SDS011;64561;44.018;10.144;2023-05-14T02:34:43;1.83;;;1.00;;
75885;SDS011;64561;44.018;10.144;2023-05-14T02:37:10;2.35;;;1.13;;
75885;SDS011;64561;44.018;10.144;2023-05-14T02:39:37;1.63;;;1.15;;
75885;SDS011;64561;44.018;10.144;2023-05-14T02:42:05;4.35;;;2.10;;
75885;SDS011;64561;44.018;10.144;2023-05-14T02:44:32;2.97;;;1.10;;
75885;SDS011;64561;44.018;10.144;2023-05-14T02:46:59;3.22;;;1.25;;
75885;SDS011;64561;44.018;10.144;2023-05-14T02:49:26;2.47;;;1.10;;
75885;SDS011;64561;44.018;10.144;2023-05-14T02:51:52;1.88;;;1.20;;
75885;SDS011;64561;44.018;10.144;2023-05-14T02:54:22;1.90;;;1.25;;
75885;SDS011;64561;44.018;10.144;2023-05-14T02:56:49;4.28;;;1.23;;
75885;SDS011;64561;44.018;10.144;2023-05-14T02:59:16;2.10;;;1.13;;
75885;SDS011;64561;44.018;10.144;2023-05-14T03:01:43;3.40;;;1.70;;
75885;SDS011;64561;44.018;10.144;2023-05-14T03:04:11;2.25;;;1.27;;
75885;SDS011;64561;44.018;10.144;2023-05-14T03:06:37;2.22;;;1.10;;
75885;SDS011;64561;44.018;10.144;2023-05-14T03:09:04;3.40;;;1.40;;
75885;SDS011;64561;44.018;10.144;2023-05-14T03:11:31;1.40;;;0.98;;
75885;SDS011;64561;44.018;10.144;2023-05-14T03:13:58;3.05;;;1.10;;
75885;SDS011;64561;44.018;10.144;2023-05-14T03:16:25;1.40;;;1.10;;
75885;SDS011;64561;44.018;10.144;2023-05-14T03:18:52;1.88;;;1.00;;
75885;SDS011;64561;44.018;10.144;2023-05-14T03:21:19;2.70;;;1.02;;
75885;SDS011;64561;44.018;10.144;2023-05-14T03:23:47;1.23;;;0.85;;
75885;SDS011;64561;44.018;10.144;2023-05-14T03:26:17;1.48;;;0.88;;
75885;SDS011;64561;44.018;10.144;2023-05-14T03:28:47;0.82;;;0.68;;
75885;SDS011;64561;44.018;10.144;2023-05-14T03:31:14;1.40;;;0.90;;
75885;SDS011;64561;44.018;10.144;2023-05-14T03:33:40;2.13;;;0.93;;
75885;SDS011;64561;44.018;10.144;2023-05-14T03:36:07;1.20;;;0.80;;
75885;SDS011;64561;44.018;10.144;2023-05-14T03:38:34;1.90;;;0.80;;
75885;SDS011;64561;44.018;10.144;2023-05-14T03:41:02;2.03;;;1.00;;
75885;SDS011;64561;44.018;10.144;2023-05-14T03:43:28;2.58;;;1.20;;
75885;SDS011;64561;44.018;10.144;2023-05-14T03:45:56;1.35;;;0.98;;
75885;SDS011;64561;44.018;10.144;2023-05-14T03:48:22;1.30;;;1.00;;
75885;SDS011;64561;44.018;10.144;2023-05-14T03:50:50;1.55;;;0.90;;
75885;SDS011;64561;44.018;10.144;2023-05-14T03:53:17;1.77;;;0.93;;
75885;SDS011;64561;44.018;10.144;2023-05-14T03:55:45;2.75;;;2.55;;
75885;SDS011;64561;44.018;10.144;2023-05-14T03:58:12;3.17;;;1.60;;
75885;SDS011;64561;44.018;10.144;2023-05-14T04:00:40;4.22;;;2.65;;
75885;SDS011;64561;44.018;10.144;2023-05-14T04:03:09;4.43;;;3.13;;
75885;SDS011;64561;44.018;10.144;2023-05-14T04:05:36;4.18;;;2.50;;
75885;SDS011;64561;44.018;10.144;2023-05-14T04:08:03;4.38;;;3.40;;
75885;SDS011;64561;44.018;10.144;2023-05-14T04:10:30;11.18;;;7.32;;
75885;SDS011;64561;44.018;10.144;2023-05-14T04:12:58;11.07;;;6.68;;
75885;SDS011;64561;44.018;10.144;2023-05-14T04:15:30;7.95;;;5.32;;
75885;SDS011;64561;44.018;10.144;2023-05-14T04:17:56;4.43;;;2.80;;
75885;SDS011;64561;44.018;10.144;2023-05-14T04:20:23;3.50;;;2.42;;
75885;SDS011;64561;44.018;10.144;2023-05-14T04:22:50;4.22;;;2.17;;
75885;SDS011;64561;44.018;10.144;2023-05-14T04:25:17;2.95;;;1.90;;
75885;SDS011;64561;44.018;10.144;2023-05-14T04:27:45;4.20;;;1.55;;
75885;SDS011;64561;44.018;10.144;2023-05-14T04:30:12;7.10;;;2.70;;
75885;SDS011;64561;44.018;10.144;2023-05-14T04:32:38;2.60;;;1.73;;
75885;SDS011;64561;44.018;10.144;2023-05-14T04:35:06;3.53;;;1.52;;
75885;SDS011;64561;44.018;10.144;2023-05-14T04:37:34;2.60;;;1.60;;
75885;SDS011;64561;44.018;10.144;2023-05-14T04:40:01;2.13;;;1.58;;
75885;SDS011;64561;44.018;10.144;2023-05-14T04:42:28;3.13;;;1.60;;
75885;SDS011;64561;44.018;10.144;2023-05-14T04:44:54;5.20;;;1.75;;
75885;SDS011;64561;44.018;10.144;2023-05-14T04:47:21;2.05;;;1.40;;
75885;SDS011;64561;44.018;10.144;2023-05-14T04:49:48;3.03;;;1.45;;
75885;SDS011;64561;44.018;10.144;2023-05-14T04:52:15;2.35;;;1.23;;
75885;SDS011;64561;44.018;10.144;2023-05-14T04:54:41;2.75;;;1.30;;
75885;SDS011;64561;44.018;10.144;2023-05-14T04:57:08;5.88;;;1.40;;
75885;SDS011;64561;44.018;10.144;2023-05-14T04:59:35;2.15;;;1.40;;
75885;SDS011;64561;44.018;10.144;2023-05-14T05:02:02;2.60;;;1.23;;
75885;SDS011;64561;44.018;10.144;2023-05-14T05:04:29;1.58;;;1.30;;
75885;SDS011;64561;44.018;10.144;2023-05-14T05:06:56;2.67;;;1.65;;
75885;SDS011;64561;44.018;10.144;2023-05-14T05:09:22;2.72;;;1.20;;
75885;SDS011;64561;44.018;10.144;2023-05-14T05:11:49;3.22;;;1.85;;
75885;SDS011;64561;44.018;10.144;2023-05-14T05:14:16;3.92;;;2.05;;
75885;SDS011;64561;44.018;10.144;2023-05-14T05:16:43;3.20;;;1.85;;
75885;SDS011;64561;44.018;10.144;2023-05-14T05:19:10;3.70;;;2.08;;
75885;SDS011;64561;44.018;10.144;2023-05-14T05:21:37;2.50;;;1.70;;
75885;SDS011;64561;44.018;10.144;2023-05-14T05:24:06;2.67;;;1.80;;
75885;SDS011;64561;44.018;10.144;2023-05-14T05:26:34;2.53;;;1.60;;
75885;SDS011;64561;44.018;10.144;2023-05-14T05:29:04;3.38;;;1.75;;
75885;SDS011;64561;44.018;10.144;2023-05-14T05:31:30;3.78;;;1.95;;
75885;SDS011;64561;44.018;10.144;2023-05-14T05:33:58;4.10;;;1.80;;
75885;SDS011;64561;44.018;10.144;2023-05-14T05:36:25;2.85;;;1.80;;
75885;SDS011;64561;44.018;10.144;2023-05-14T05:38:52;2.85;;;1.50;;
75885;SDS011;64561;44.018;10.144;2023-05-14T05:41:20;2.80;;;1.42;;
75885;SDS011;64561;44.018;10.144;2023-05-14T05:43:48;2.08;;;1.50;;
75885;SDS011;64561;44.018;10.144;2023-05-14T05:46:14;2.00;;;1.38;;
75885;SDS011;64561;44.018;10.144;2023-05-14T05:48:41;2.45;;;1.55;;
75885;SDS011;64561;44.018;10.144;2023-05-14T05:51:08;2.90;;;1.60;;
75885;SDS011;64561;44.018;10.144;2023-05-14T05:53:35;4.68;;;1.63;;
75885;SDS011;64561;44.018;10.144;2023-05-14T05:56:02;5.30;;;1.77;;
75885;SDS011;64561;44.018;10.144;2023-05-14T05:58:29;3.00;;;1.90;;
75885;SDS011;64561;44.018;10.144;2023-05-14T06:00:55;2.25;;;1.50;;
75885;SDS011;64561;44.018;10.144;2023-05-14T06:03:23;2.88;;;1.75;;
75885;SDS011;64561;44.018;10.144;2023-05-14T06:05:50;2.28;;;1.50;;
75885;SDS011;64561;44.018;10.144;2023-05-14T06:08:18;3.63;;;1.40;;
75885;SDS011;64561;44.018;10.144;2023-05-14T06:10:44;3.72;;;1.60;;
75885;SDS011;64561;44.018;10.144;2023-05-14T06:13:13;2.05;;;1.48;;
75885;SDS011;64561;44.018;10.144;2023-05-14T06:15:40;3.22;;;1.42;;
75885;SDS011;64561;44.018;10.144;2023-05-14T06:18:06;2.53;;;1.73;;
75885;SDS011;64561;44.018;10.144;2023-05-14T06:20:33;3.55;;;1.70;;
75885;SDS011;64561;44.018;10.144;2023-05-14T06:23:00;3.75;;;1.60;;
75885;SDS011;64561;44.018;10.144;2023-05-14T06:25:27;3.00;;;1.70;;
75885;SDS011;64561;44.018;10.144;2023-05-14T06:27:54;2.25;;;1.33;;
75885;SDS011;64561;44.018;10.144;2023-05-14T06:30:21;1.92;;;1.40;;
75885;SDS011;64561;44.018;10.144;2023-05-14T06:32:48;2.00;;;1.30;;
75885;SDS011;64561;44.018;10.144;2023-05-14T06:35:15;2.40;;;1.48;;
75885;SDS011;64561;44.018;10.144;2023-05-14T06:37:42;2.35;;;1.48;;
75885;SDS011;64561;44.018;10.144;2023-05-14T06:40:10;2.38;;;1.30;;
75885;SDS011;64561;44.018;10.144;2023-05-14T06:42:37;2.53;;;1.80;;
75885;SDS011;64561;44.018;10.144;2023-05-14T06:45:04;2.03;;;1.38;;
75885;SDS011;64561;44.018;10.144;2023-05-14T06:47:32;3.40;;;1.67;;
75885;SDS011;64561;44.018;10.144;2023-05-14T06:49:59;2.22;;;1.48;;
75885;SDS011;64561;44.018;10.144;2023-05-14T06:52:27;3.72;;;1.80;;
75885;SDS011;64561;44.018;10.144;2023-05-14T06:54:54;2.72;;;1.33;;
75885;SDS011;64561;44.018;10.144;2023-05-14T06:57:20;2.67;;;1.50;;
75885;SDS011;64561;44.018;10.144;2023-05-14T06:59:47;3.00;;;1.92;;
75885;SDS011;64561;44.018;10.144;2023-05-14T07:02:14;2.38;;;1.80;;
75885;SDS011;64561;44.018;10.144;2023-05-14T07:04:41;2.33;;;1.48;;
75885;SDS011;64561;44.018;10.144;2023-05-14T07:07:08;2.63;;;1.67;;
75885;SDS011;64561;44.018;10.144;2023-05-14T07:09:36;11.52;;;1.88;;
75885;SDS011;64561;44.018;10.144;2023-05-14T07:12:03;2.38;;;1.58;;
75885;SDS011;64561;44.018;10.144;2023-05-14T07:14:30;1.90;;;1.40;;
75885;SDS011;64561;44.018;10.144;2023-05-14T07:16:56;3.20;;;1.80;;
75885;SDS011;64561;44.018;10.144;2023-05-14T07:19:23;2.75;;;1.98;;
75885;SDS011;64561;44.018;10.144;2023-05-14T07:21:50;3.08;;;1.83;;
75885;SDS011;64561;44.018;10.144;2023-05-14T07:24:17;3.67;;;2.33;;
75885;SDS011;64561;44.018;10.144;2023-05-14T07:26:44;3.80;;;2.50;;
75885;SDS011;64561;44.018;10.144;2023-05-14T07:29:11;3.25;;;2.15;;
75885;SDS011;64561;44.018;10.144;2023-05-14T07:31:37;2.80;;;2.20;;
75885;SDS011;64561;44.018;10.144;2023-05-14T07:34:04;3.95;;;2.65;;
75885;SDS011;64561;44.018;10.144;2023-05-14T07:36:31;4.90;;;3.60;;
75885;SDS011;64561;44.018;10.144;2023-05-14T07:38:58;3.60;;;2.90;;
75885;SDS011;64561;44.018;10.144;2023-05-14T07:41:25;4.15;;;3.30;;
75885;SDS011;64561;44.018;10.144;2023-05-14T07:43:52;4.32;;;3.20;;
75885;SDS011;64561;44.018;10.144;2023-05-14T07:46:19;5.45;;;3.83;;
75885;SDS011;64561;44.018;10.144;2023-05-14T07:48:46;4.25;;;3.25;;
75885;SDS011;64561;44.018;10.144;2023-05-14T07:51:15;5.25;;;3.40;;
75885;SDS011;64561;44.018;10.144;2023-05-14T07:53:42;4.28;;;3.13;;
75885;SDS011;64561;44.018;10.144;2023-05-14T07:56:09;4.85;;;3.20;;
75885;SDS011;64561;44.018;10.144;2023-05-14T07:58:36;5.50;;;3.78;;
75885;SDS011;64561;44.018;10.144;2023-05-14T08:01:02;6.38;;;4.07;;
75885;SDS011;64561;44.018;10.144;2023-05-14T08:03:32;7.15;;;5.85;;
75885;SDS011;64561;44.018;10.144;2023-05-14T08:05:59;6.70;;;4.60;;
75885;SDS011;64561;44.018;10.144;2023-05-14T08:08:26;4.97;;;3.40;;
75885;SDS011;64561;44.018;10.144;2023-05-14T08:10:53;4.90;;;3.72;;
75885;SDS011;64561;44.018;10.144;2023-05-14T08:13:20;4.80;;;3.70;;
75885;SDS011;64561;44.018;10.144;2023-05-14T08:15:47;5.90;;;4.00;;
75885;SDS011;64561;44.018;10.144;2023-05-14T08:18:13;5.47;;;3.90;;
75885;SDS011;64561;44.018;10.144;2023-05-14T08:20:40;6.00;;;3.72;;
75885;SDS011;64561;44.018;10.144;2023-05-14T08:23:07;4.32;;;2.95;;
75885;SDS011;64561;44.018;10.144;2023-05-14T08:25:34;5.15;;;3.05;;
75885;SDS011;64561;44.018;10.144;2023-05-14T08:28:01;4.30;;;2.70;;
75885;SDS011;64561;44.018;10.144;2023-05-14T08:30:28;7.05;;;3.17;;
75885;SDS011;64561;44.018;10.144;2023-05-14T08:32:57;5.70;;;3.67;;
75885;SDS011;64561;44.018;10.144;2023-05-14T08:35:25;4.22;;;2.83;;
75885;SDS011;64561;44.018;10.144;2023-05-14T08:37:51;4.32;;;2.92;;
75885;SDS011;64561;44.018;10.144;2023-05-14T08:40:18;4.30;;;3.13;;
75885;SDS011;64561;44.018;10.144;2023-05-14T08:42:46;5.68;;;2.58;;
75885;SDS011;64561;44.018;10.144;2023-05-14T08:45:17;5.07;;;2.80;;
75885;SDS011;64561;44.018;10.144;2023-05-14T08:47:46;5.07;;;3.35;;
75885;SDS011;64561;44.018;10.144;2023-05-14T08:50:17;5.35;;;2.30;;
75885;SDS011;64561;44.018;10.144;2023-05-14T08:52:49;4.93;;;2.28;;
75885;SDS011;64561;44.018;10.144;2023-05-14T08:55:16;4.35;;;2.67;;
75885;SDS011;64561;44.018;10.144;2023-05-14T08:57:44;3.88;;;2.78;;
75885;SDS011;64561;44.018;10.144;2023-05-14T09:00:14;6.18;;;4.50;;
75885;SDS011;64561;44.018;10.144;2023-05-14T09:02:41;5.18;;;3.10;;
75885;SDS011;64561;44.018;10.144;2023-05-14T09:05:10;4.32;;;2.80;;
75885;SDS011;64561;44.018;10.144;2023-05-14T09:07:37;2.90;;;2.33;;
75885;SDS011;64561;44.018;10.144;2023-05-14T09:10:05;4.90;;;2.10;;
75885;SDS011;64561;44.018;10.144;2023-05-14T09:12:34;4.97;;;2.20;;
75885;SDS011;64561;44.018;10.144;2023-05-14T09:15:01;3.30;;;2.20;;
75885;SDS011;64561;44.018;10.144;2023-05-14T09:17:28;3.85;;;2.30;;
75885;SDS011;64561;44.018;10.144;2023-05-14T09:19:55;4.68;;;2.30;;
75885;SDS011;64561;44.018;10.144;2023-05-14T09:22:22;4.57;;;2.20;;
75885;SDS011;64561;44.018;10.144;2023-05-14T09:25:10;3.78;;;2.33;;
75885;SDS011;64561;44.018;10.144;2023-05-14T09:27:37;3.35;;;2.58;;
75885;SDS011;64561;44.018;10.144;2023-05-14T09:32:35;4.70;;;2.95;;
75885;SDS011;64561;44.018;10.144;2023-05-14T09:35:13;3.55;;;2.92;;
75885;SDS011;64561;44.018;10.144;2023-05-14T09:37:48;2.95;;;2.33;;
75885;SDS011;64561;44.018;10.144;2023-05-14T09:40:16;3.47;;;2.10;;
75885;SDS011;64561;44.018;10.144;2023-05-14T09:42:45;4.85;;;2.30;;
75885;SDS011;64561;44.018;10.144;2023-05-14T09:45:12;3.00;;;1.90;;
75885;SDS011;64561;44.018;10.144;2023-05-14T09:47:40;4.30;;;2.05;;
75885;SDS011;64561;44.018;10.144;2023-05-14T09:50:07;3.05;;;1.73;;
75885;SDS011;64561;44.018;10.144;2023-05-14T09:52:35;4.45;;;2.53;;
75885;SDS011;64561;44.018;10.144;2023-05-14T09:55:02;3.88;;;2.15;;
75885;SDS011;64561;44.018;10.144;2023-05-14T09:57:29;3.75;;;2.40;;
75885;SDS011;64561;44.018;10.144;2023-05-14T09:59:56;3.00;;;1.85;;
75885;SDS011;64561;44.018;10.144;2023-05-14T10:02:24;3.08;;;1.90;;
75885;SDS011;64561;44.018;10.144;2023-05-14T10:04:52;2.50;;;1.70;;
75885;SDS011;64561;44.018;10.144;2023-05-14T10:07:25;2.42;;;1.60;;
75885;SDS011;64561;44.018;10.144;2023-05-14T10:10:02;2.13;;;1.50;;
75885;SDS011;64561;44.018;10.144;2023-05-14T10:12:35;2.80;;;1.70;;
75885;SDS011;64561;44.018;10.144;2023-05-14T10:15:11;2.42;;;1.60;;
75885;SDS011;64561;44.018;10.144;2023-05-14T10:17:47;3.90;;;1.90;;
75885;SDS011;64561;44.018;10.144;2023-05-14T10:20:17;2.90;;;2.10;;
75885;SDS011;64561;44.018;10.144;2023-05-14T10:22:44;3.97;;;1.73;;
75885;SDS011;64561;44.018;10.144;2023-05-14T10:25:11;3.88;;;2.40;;
75885;SDS011;64561;44.018;10.144;2023-05-14T10:27:39;3.05;;;2.10;;
75885;SDS011;64561;44.018;10.144;2023-05-14T10:30:10;4.03;;;3.03;;
75885;SDS011;64561;44.018;10.144;2023-05-14T10:32:38;2.55;;;2.00;;
75885;SDS011;64561;44.018;10.144;2023-05-14T10:35:17;4.18;;;1.83;;
75885;SDS011;64561;44.018;10.144;2023-05-14T10:37:46;2.08;;;1.60;;
75885;SDS011;64561;44.018;10.144;2023-05-14T10:40:16;4.22;;;3.10;;
75885;SDS011;64561;44.018;10.144;2023-05-14T10:42:45;6.50;;;5.00;;
75885;SDS011;64561;44.018;10.144;2023-05-14T10:45:13;5.03;;;3.60;;
75885;SDS011;64561;44.018;10.144;2023-05-14T10:47:42;4.22;;;2.83;;
75885;SDS011;64561;44.018;10.144;2023-05-14T10:52:43;3.97;;;2.00;;
75885;SDS011;64561;44.018;10.144;2023-05-14T10:55:14;2.28;;;1.48;;
75885;SDS011;64561;44.018;10.144;2023-05-14T10:57:43;2.92;;;1.40;;
75885;SDS011;64561;44.018;10.144;2023-05-14T11:00:11;3.10;;;1.30;;
75885;SDS011;64561;44.018;10.144;2023-05-14T11:02:40;2.00;;;1.50;;
75885;SDS011;64561;44.018;10.144;2023-05-14T11:05:13;2.33;;;1.42;;
75885;SDS011;64561;44.018;10.144;2023-05-14T11:07:43;1.98;;;1.45;;
75885;SDS011;64561;44.018;10.144;2023-05-14T11:10:13;3.28;;;1.38;;
75885;SDS011;64561;44.018;10.144;2023-05-14T11:12:42;3.60;;;2.50;;
75885;SDS011;64561;44.018;10.144;2023-05-14T11:15:17;2.25;;;1.60;;
75885;SDS011;64561;44.018;10.144;2023-05-14T11:17:46;2.20;;;1.17;;
75885;SDS011;64561;44.018;10.144;2023-05-14T11:20:14;1.73;;;1.10;;
75885;SDS011;64561;44.018;10.144;2023-05-14T11:22:42;1.42;;;1.00;;
75885;SDS011;64561;44.018;10.144;2023-05-14T11:25:10;2.97;;;1.52;;
75885;SDS011;64561;44.018;10.144;2023-05-14T11:27:41;2.80;;;1.85;;
75885;SDS011;64561;44.018;10.144;2023-05-14T11:30:16;3.38;;;1.60;;
75885;SDS011;64561;44.018;10.144;2023-05-14T11:32:45;2.58;;;1.52;;
75885;SDS011;64561;44.018;10.144;2023-05-14T11:35:13;2.53;;;1.73;;
75885;SDS011;64561;44.018;10.144;2023-05-14T11:37:41;3.65;;;2.03;;
75885;SDS011;64561;44.018;10.144;2023-05-14T11:40:13;2.28;;;1.33;;
75885;SDS011;64561;44.018;10.144;2023-05-14T11:42:42;2.78;;;1.60;;
75885;SDS011;64561;44.018;10.144;2023-05-14T11:45:23;3.20;;;2.00;;
75885;SDS011;64561;44.018;10.144;2023-05-14T11:47:52;2.58;;;1.30;;
75885;SDS011;64561;44.018;10.144;2023-05-14T11:50:23;4.10;;;1.67;;
75885;SDS011;64561;44.018;10.144;2023-05-14T11:52:50;4.20;;;1.75;;
75885;SDS011;64561;44.018;10.144;2023-05-14T11:55:22;2.03;;;1.23;;
75885;SDS011;64561;44.018;10.144;2023-05-14T11:57:49;3.50;;;1.60;;
75885;SDS011;64561;44.018;10.144;2023-05-14T12:00:16;2.97;;;1.70;;
75885;SDS011;64561;44.018;10.144;2023-05-14T12:02:47;1.88;;;1.25;;
75885;SDS011;64561;44.018;10.144;2023-05-14T12:05:15;3.08;;;1.92;;
75885;SDS011;64561;44.018;10.144;2023-05-14T12:07:45;2.33;;;1.40;;
75885;SDS011;64561;44.018;10.144;2023-05-14T12:10:13;2.35;;;1.13;;
75885;SDS011;64561;44.018;10.144;2023-05-14T12:12:43;3.22;;;1.15;;
75885;SDS011;64561;44.018;10.144;2023-05-14T12:15:12;2.50;;;1.27;;
75885;SDS011;64561;44.018;10.144;2023-05-14T12:17:42;3.47;;;1.27;;
75885;SDS011;64561;44.018;10.144;2023-05-14T12:20:15;1.85;;;1.20;;
75885;SDS011;64561;44.018;10.144;2023-05-14T12:22:42;5.43;;;2.35;;
75885;SDS011;64561;44.018;10.144;2023-05-14T12:25:10;2.38;;;1.20;;
75885;SDS011;64561;44.018;10.144;2023-05-14T12:27:43;2.35;;;1.20;;
75885;SDS011;64561;44.018;10.144;2023-05-14T12:30:11;1.95;;;1.05;;
75885;SDS011;64561;44.018;10.144;2023-05-14T12:32:47;1.92;;;1.38;;
75885;SDS011;64561;44.018;10.144;2023-05-14T12:35:17;7.43;;;4.07;;
75885;SDS011;64561;44.018;10.144;2023-05-14T12:37:44;2.67;;;1.30;;
75885;SDS011;64561;44.018;10.144;2023-05-14T12:40:11;1.38;;;0.95;;
75885;SDS011;64561;44.018;10.144;2023-05-14T12:42:38;2.05;;;0.90;;
75885;SDS011;64561;44.018;10.144;2023-05-14T12:45:05;1.33;;;1.00;;
75885;SDS011;64561;44.018;10.144;2023-05-14T12:47:34;1.65;;;1.00;;
75885;SDS011;64561;44.018;10.144;2023-05-14T12:50:02;0.82;;;0.63;;
75885;SDS011;64561;44.018;10.144;2023-05-14T12:52:30;1.65;;;0.70;;
75885;SDS011;64561;44.018;10.144;2023-05-14T12:55:00;1.40;;;1.10;;
75885;SDS011;64561;44.018;10.144;2023-05-14T12:57:27;1.50;;;1.00;;
75885;SDS011;64561;44.018;10.144;2023-05-14T12:59:55;1.10;;;0.90;;
75885;SDS011;64561;44.018;10.144;2023-05-14T13:02:22;1.85;;;1.10;;
75885;SDS011;64561;44.018;10.144;2023-05-14T13:04:49;1.58;;;1.23;;
75885;SDS011;64561;44.018;10.144;2023-05-14T13:07:16;1.02;;;0.80;;
75885;SDS011;64561;44.018;10.144;2023-05-14T13:09:43;1.25;;;0.70;;
75885;SDS011;64561;44.018;10.144;2023-05-14T13:12:10;1.33;;;0.90;;
75885;SDS011;64561;44.018;10.144;2023-05-14T13:14:37;1.48;;;0.82;;
75885;SDS011;64561;44.018;10.144;2023-05-14T13:17:04;1.08;;;0.80;;
75885;SDS011;64561;44.018;10.144;2023-05-14T13:19:32;0.65;;;0.50;;
75885;SDS011;64561;44.018;10.144;2023-05-14T13:22:00;1.63;;;0.90;;
75885;SDS011;64561;44.018;10.144;2023-05-14T13:24:27;1.67;;;0.93;;
75885;SDS011;64561;44.018;10.144;2023-05-14T13:26:54;1.95;;;0.60;;
75885;SDS011;64561;44.018;10.144;2023-05-14T13:29:21;0.82;;;0.68;;
75885;SDS011;64561;44.018;10.144;2023-05-14T13:31:48;2.33;;;1.00;;
75885;SDS011;64561;44.018;10.144;2023-05-14T13:34:15;2.97;;;1.30;;
75885;SDS011;64561;44.018;10.144;2023-05-14T13:36:42;3.80;;;2.30;;
75885;SDS011;64561;44.018;10.144;2023-05-14T13:39:09;2.33;;;1.08;;
75885;SDS011;64561;44.018;10.144;2023-05-14T13:41:40;3.33;;;1.70;;
75885;SDS011;64561;44.018;10.144;2023-05-14T13:44:06;4.10;;;1.15;;
75885;SDS011;64561;44.018;10.144;2023-05-14T13:46:33;2.20;;;1.10;;
75885;SDS011;64561;44.018;10.144;2023-05-14T13:49:00;1.63;;;1.10;;
75885;SDS011;64561;44.018;10.144;2023-05-14T13:51:27;1.88;;;1.00;;
75885;SDS011;64561;44.018;10.144;2023-05-14T13:53:54;2.13;;;1.00;;
75885;SDS011;64561;44.018;10.144;2023-05-14T13:56:21;1.98;;;0.70;;
75885;SDS011;64561;44.018;10.144;2023-05-14T13:58:48;2.13;;;1.17;;
75885;SDS011;64561;44.018;10.144;2023-05-14T14:01:15;2.75;;;1.35;;
75885;SDS011;64561;44.018;10.144;2023-05-14T14:03:42;1.63;;;1.08;;
75885;SDS011;64561;44.018;10.144;2023-05-14T14:06:09;1.65;;;0.93;;
75885;SDS011;64561;44.018;10.144;2023-05-14T14:08:37;2.10;;;1.02;;
75885;SDS011;64561;44.018;10.144;2023-05-14T14:11:04;0.77;;;0.75;;
75885;SDS011;64561;44.018;10.144;2023-05-14T14:13:31;2.42;;;1.10;;
75885;SDS011;64561;44.018;10.144;2023-05-14T14:15:58;2.22;;;1.00;;
75885;SDS011;64561;44.018;10.144;2023-05-14T14:18:25;0.73;;;0.70;;
75885;SDS011;64561;44.018;10.144;2023-05-14T14:20:52;1.15;;;0.70;;
75885;SDS011;64561;44.018;10.144;2023-05-14T14:23:19;1.00;;;0.80;;
75885;SDS011;64561;44.018;10.144;2023-05-14T14:25:46;1.13;;;0.80;;
75885;SDS011;64561;44.018;10.144;2023-05-14T14:28:13;0.93;;;0.73;;
75885;SDS011;64561;44.018;10.144;2023-05-14T14:30:40;1.75;;;0.77;;
75885;SDS011;64561;44.018;10.144;2023-05-14T14:33:07;1.10;;;0.80;;
75885;SDS011;64561;44.018;10.144;2023-05-14T14:35:34;1.67;;;1.08;;
75885;SDS011;64561;44.018;10.144;2023-05-14T14:38:01;1.95;;;1.10;;
75885;SDS011;64561;44.018;10.144;2023-05-14T14:40:31;1.77;;;0.82;;
75885;SDS011;64561;44.018;10.144;2023-05-14T14:42:58;1.23;;;0.70;;
75885;SDS011;64561;44.018;10.144;2023-05-14T14:45:25;1.38;;;1.00;;
75885;SDS011;64561;44.018;10.144;2023-05-14T14:48:02;1.33;;;0.80;;
75885;SDS011;64561;44.018;10.144;2023-05-14T14:50:51;1.05;;;0.77;;
75885;SDS011;64561;44.018;10.144;2023-05-14T14:53:19;3.28;;;1.10;;
75885;SDS011;64561;44.018;10.144;2023-05-14T14:55:47;1.75;;;1.13;;